createdAt,value
2017-12-01T00:02:16.381Z,4.20
2017-12-01T00:04:45.529Z,4.57
2017-12-01T00:07:14.617Z,3.90
2017-12-01T00:09:44.660Z,4.17
2017-12-01T00:12:13.710Z,4.22
2017-12-01T00:14:50.524Z,4.72
2017-12-01T00:19:57.591Z,5.00
2017-12-01T00:22:26.747Z,4.07
2017-12-01T00:24:55.846Z,5.10
2017-12-01T00:27:24.909Z,4.70
2017-12-01T00:29:59.266Z,3.60
2017-12-01T00:32:28.402Z,5.20
2017-12-01T00:34:57.511Z,5.05
2017-12-01T00:37:26.537Z,4.03
2017-12-01T00:42:38.902Z,4.55
2017-12-01T00:45:07.949Z,3.63
2017-12-01T00:47:42.454Z,5.62
2017-12-01T00:50:11.511Z,5.68
2017-12-01T00:52:41.601Z,4.80
2017-12-01T00:55:10.654Z,7.03
2017-12-01T00:57:39.723Z,8.40
2017-12-01T01:00:08.778Z,7.90
2017-12-01T01:05:13.951Z,8.55
2017-12-01T01:07:44.920Z,7.30
2017-12-01T01:10:13.958Z,9.30
2017-12-01T01:15:18.770Z,8.30
2017-12-01T01:17:56.630Z,8.68
2017-12-01T01:20:37.488Z,7.07
2017-12-01T01:23:06.500Z,7.87
2017-12-01T01:25:37.471Z,8.02
2017-12-01T01:28:06.498Z,6.33
2017-12-01T01:30:35.547Z,7.55
2017-12-01T01:33:04.578Z,7.95
2017-12-01T01:38:11.772Z,6.35
2017-12-01T01:40:58.611Z,3.43
2017-12-01T01:43:27.662Z,4.78
2017-12-01T01:45:58.602Z,5.20
2017-12-01T01:51:04.772Z,6.20
2017-12-01T01:53:37.550Z,4.40
2017-12-01T01:56:06.611Z,6.57
2017-12-01T01:58:35.669Z,5.85
2017-12-01T02:01:04.714Z,6.20
2017-12-01T02:03:34.767Z,4.67
2017-12-01T02:06:03.809Z,6.15
2017-12-01T02:08:40.754Z,6.87
2017-12-01T02:11:09.809Z,5.20
2017-12-01T02:13:38.893Z,8.32
2017-12-01T02:16:07.939Z,10.30
2017-12-01T02:18:36.988Z,6.83
2017-12-01T02:21:06.046Z,8.18
2017-12-01T02:23:39.156Z,5.17
2017-12-01T02:26:08.198Z,4.60
2017-12-01T02:28:37.284Z,3.47
2017-12-01T02:31:06.330Z,4.60
2017-12-01T02:33:36.390Z,3.93
2017-12-01T02:36:05.453Z,3.50
2017-12-01T02:38:35.487Z,2.42
2017-12-01T02:41:04.533Z,4.12
2017-12-01T02:43:35.664Z,5.37
2017-12-01T02:46:04.675Z,4.35
2017-12-01T02:48:38.243Z,3.20
2017-12-01T02:51:07.287Z,6.62
2017-12-01T02:53:49.599Z,5.35
2017-12-01T02:56:28.571Z,4.00
2017-12-01T02:58:58.510Z,4.07
2017-12-01T03:01:35.328Z,5.12
2017-12-01T03:04:04.383Z,4.22
2017-12-01T03:06:33.458Z,5.70
2017-12-01T03:09:02.507Z,3.95
2017-12-01T03:11:33.465Z,3.70
2017-12-01T03:14:02.519Z,5.95
2017-12-01T03:16:35.582Z,6.10
2017-12-01T03:19:04.614Z,7.43
2017-12-01T03:24:11.803Z,5.87
2017-12-01T03:26:40.887Z,5.07
2017-12-01T03:29:09.966Z,7.22
2017-12-01T03:31:54.781Z,6.70
2017-12-01T03:34:24.849Z,5.70
2017-12-01T03:36:53.893Z,6.90
2017-12-01T03:39:22.938Z,4.95
2017-12-01T03:41:53.908Z,4.50
2017-12-01T03:44:26.664Z,2.90
2017-12-01T03:47:02.706Z,7.97
2017-12-01T03:49:31.715Z,4.60
2017-12-01T03:52:00.765Z,6.28
2017-12-01T03:54:29.879Z,5.37
2017-12-01T03:56:58.934Z,4.82
2017-12-01T03:59:27.978Z,6.97
2017-12-01T04:01:57.018Z,7.37
2017-12-01T04:04:26.215Z,4.25
2017-12-01T04:06:55.264Z,5.65
2017-12-01T04:09:24.312Z,4.00
2017-12-01T04:11:53.366Z,6.43
2017-12-01T04:14:22.411Z,4.57
2017-12-01T04:16:51.473Z,4.75
2017-12-01T04:19:20.510Z,5.55
2017-12-01T04:21:58.424Z,3.62
2017-12-01T04:24:33.459Z,4.25
2017-12-01T04:27:02.522Z,5.35
2017-12-01T04:29:31.569Z,5.22
2017-12-01T04:32:00.614Z,3.97
2017-12-01T04:34:29.670Z,3.85
2017-12-01T04:36:58.782Z,3.15
2017-12-01T04:39:29.786Z,4.07
2017-12-01T04:41:58.839Z,5.18
2017-12-01T04:44:27.890Z,4.82
2017-12-01T04:49:36.351Z,5.22
2017-12-01T04:52:06.289Z,7.53
2017-12-01T04:54:36.382Z,5.95
2017-12-01T04:57:05.423Z,7.57
2017-12-01T04:59:34.478Z,5.75
2017-12-01T05:02:03.522Z,12.95
2017-12-01T05:04:33.931Z,8.65
2017-12-01T05:07:51.742Z,5.00
2017-12-01T05:10:20.805Z,5.57
2017-12-01T05:12:49.877Z,4.70
2017-12-01T05:15:27.089Z,4.43
2017-12-01T05:17:56.147Z,7.12
2017-12-01T05:20:30.489Z,5.12
2017-12-01T05:22:59.554Z,4.93
2017-12-01T05:25:28.691Z,4.93
2017-12-01T05:27:57.762Z,6.28
2017-12-01T05:30:26.836Z,5.43
2017-12-01T05:33:03.774Z,7.47
2017-12-01T05:35:32.826Z,7.40
2017-12-01T05:38:03.807Z,5.95
2017-12-01T05:40:32.849Z,10.60
2017-12-01T05:43:12.074Z,7.20
2017-12-01T05:45:41.127Z,5.57
2017-12-01T05:48:10.223Z,5.80
2017-12-01T05:50:42.301Z,5.57
2017-12-01T05:53:11.357Z,4.15
2017-12-01T05:55:40.449Z,4.28
2017-12-01T05:58:09.502Z,5.32
2017-12-01T06:00:38.548Z,4.90
2017-12-01T06:03:18.445Z,4.05
2017-12-01T06:05:47.489Z,8.80
2017-12-01T06:08:17.591Z,5.15
2017-12-01T06:10:47.514Z,2.92
2017-12-01T06:13:25.918Z,4.87
2017-12-01T06:18:32.073Z,5.40
2017-12-01T06:21:03.150Z,5.18
2017-12-01T06:23:33.114Z,4.25
2017-12-01T06:26:04.220Z,5.45
2017-12-01T06:28:33.290Z,5.78
2017-12-01T06:31:02.313Z,4.55
2017-12-01T06:33:32.263Z,6.07
2017-12-01T06:36:13.168Z,5.87
2017-12-01T06:38:43.118Z,4.78
2017-12-01T06:41:21.798Z,5.07
2017-12-01T06:43:50.867Z,3.45
2017-12-01T06:46:19.918Z,7.03
2017-12-01T06:48:48.950Z,5.12
2017-12-01T06:51:18.006Z,5.18
2017-12-01T06:53:52.669Z,8.32
2017-12-01T06:56:21.807Z,6.90
2017-12-01T06:58:50.851Z,5.78
2017-12-01T07:01:19.919Z,6.70
2017-12-01T07:03:48.985Z,4.85
2017-12-01T07:11:39.719Z,6.40
2017-12-01T07:14:08.771Z,6.10
2017-12-01T07:16:37.814Z,6.68
2017-12-01T07:21:50.030Z,7.60
2017-12-01T07:24:20.074Z,7.97
2017-12-01T07:32:07.393Z,11.02
2017-12-01T07:34:36.504Z,14.10
2017-12-01T07:39:43.278Z,15.00
2017-12-01T07:42:13.470Z,11.60
2017-12-01T07:44:46.305Z,12.98
2017-12-01T07:47:15.360Z,11.60
2017-12-01T07:49:48.764Z,18.67
2017-12-01T07:52:27.839Z,30.67
2017-12-01T07:54:56.902Z,25.80
2017-12-01T07:57:33.004Z,35.70
2017-12-01T08:00:02.023Z,26.27
2017-12-01T08:02:31.086Z,24.48
2017-12-01T08:05:01.090Z,15.90
2017-12-01T08:07:30.940Z,6.40
2017-12-01T08:09:59.980Z,6.80
2017-12-01T08:12:29.054Z,7.10
2017-12-01T08:15:00.131Z,5.83
2017-12-01T08:17:31.820Z,6.85
2017-12-01T08:20:00.880Z,6.93
2017-12-01T08:22:48.659Z,6.10
2017-12-01T08:25:28.529Z,7.40
2017-12-01T08:27:57.588Z,7.30
2017-12-01T08:30:26.612Z,8.68
2017-12-01T08:35:42.981Z,8.40
2017-12-01T08:40:48.682Z,7.90
2017-12-01T08:43:17.745Z,6.80
2017-12-01T08:45:48.487Z,7.65
2017-12-01T08:48:17.525Z,8.05
2017-12-01T08:50:47.915Z,6.03
2017-12-01T08:53:17.910Z,7.00
2017-12-01T08:55:48.065Z,5.70
2017-12-01T08:58:21.650Z,7.68
2017-12-01T09:00:50.706Z,6.17
2017-12-01T09:03:25.191Z,7.32
2017-12-01T09:06:05.307Z,7.90
2017-12-01T09:08:34.342Z,6.63
2017-12-01T09:11:03.432Z,7.37
2017-12-01T09:13:32.458Z,7.85
2017-12-01T09:16:16.513Z,6.80
2017-12-01T09:21:23.855Z,8.50
2017-12-01T09:23:53.233Z,9.75
2017-12-01T09:26:22.278Z,6.27
2017-12-01T09:28:51.312Z,7.18
2017-12-01T09:31:22.293Z,7.23
2017-12-01T09:33:51.338Z,6.10
2017-12-01T09:36:29.596Z,6.65
2017-12-01T09:38:58.643Z,6.67
2017-12-01T09:41:27.685Z,6.45
2017-12-01T09:43:56.715Z,5.73
2017-12-01T09:46:35.969Z,7.53
2017-12-01T09:49:05.001Z,8.40
2017-12-01T09:51:34.023Z,7.00
2017-12-01T09:54:03.068Z,7.90
2017-12-01T09:59:08.599Z,8.07
2017-12-01T10:01:37.690Z,8.27
2017-12-01T10:04:06.714Z,11.38
2017-12-01T10:06:49.975Z,8.38
2017-12-01T10:09:20.932Z,9.77
2017-12-01T10:11:49.986Z,7.90
2017-12-01T10:14:19.034Z,7.03
2017-12-01T10:16:48.074Z,5.63
2017-12-01T10:19:24.774Z,6.60
2017-12-01T10:21:53.767Z,6.17
2017-12-01T10:26:58.489Z,5.40
2017-12-01T10:29:40.813Z,5.10
2017-12-01T10:32:09.849Z,8.73
2017-12-01T10:34:38.878Z,6.40
2017-12-01T10:37:07.923Z,4.10
2017-12-01T10:39:39.983Z,2.87
2017-12-01T10:42:09.005Z,3.75
2017-12-01T10:44:38.045Z,3.20
2017-12-01T10:47:07.122Z,3.70
2017-12-01T10:52:12.329Z,4.82
2017-12-01T10:57:19.545Z,4.10
2017-12-01T10:59:50.504Z,3.90
2017-12-01T11:02:19.539Z,4.35
2017-12-01T11:04:50.485Z,4.00
2017-12-01T11:07:26.830Z,5.03
2017-12-01T11:09:56.774Z,4.63
2017-12-01T11:12:25.842Z,4.55
2017-12-01T11:14:54.853Z,5.07
2017-12-01T11:17:24.025Z,5.25
2017-12-01T11:19:55.009Z,5.20
2017-12-01T11:22:24.960Z,4.57
2017-12-01T11:24:54.928Z,4.60
2017-12-01T11:27:25.910Z,3.63
2017-12-01T11:29:55.963Z,4.93
2017-12-01T11:32:25.058Z,5.47
2017-12-01T11:34:55.035Z,5.05
2017-12-01T11:37:24.074Z,4.27
2017-12-01T11:39:53.114Z,3.93
2017-12-01T11:42:22.149Z,5.00
2017-12-01T11:47:29.366Z,5.45
2017-12-01T11:49:58.624Z,5.00
2017-12-01T11:52:27.662Z,5.25
2017-12-01T11:54:56.697Z,4.17
2017-12-01T11:57:25.877Z,3.97
2017-12-01T11:59:56.029Z,5.10
2017-12-01T12:02:25.121Z,5.30
2017-12-01T12:04:55.285Z,6.22
2017-12-01T12:07:24.325Z,5.00
2017-12-01T12:09:55.349Z,4.63
2017-12-01T12:12:24.387Z,4.90
2017-12-01T12:14:53.451Z,4.00
2017-12-01T12:17:22.480Z,4.70
2017-12-01T12:19:56.913Z,3.60
2017-12-01T12:22:25.948Z,5.10
2017-12-01T12:24:55.029Z,5.00
2017-12-01T12:27:24.041Z,5.37
2017-12-01T12:29:58.355Z,5.40
2017-12-01T12:32:27.459Z,4.87
2017-12-01T12:34:56.550Z,5.20
2017-12-01T12:40:10.906Z,6.22
2017-12-01T12:42:41.303Z,5.47
2017-12-01T12:45:21.691Z,4.60
2017-12-01T12:47:50.722Z,4.83
2017-12-01T12:50:21.660Z,5.60
2017-12-01T12:53:13.569Z,6.37
2017-12-01T12:55:46.244Z,5.47
2017-12-01T12:58:21.171Z,7.33
2017-12-01T13:00:53.679Z,7.80
2017-12-01T13:03:23.879Z,8.55
2017-12-01T13:05:52.901Z,8.20
2017-12-01T13:08:21.950Z,6.30
2017-12-01T13:10:51.098Z,7.25
2017-12-01T13:13:20.126Z,6.17
2017-12-01T13:15:58.283Z,6.70
2017-12-01T13:18:27.403Z,5.70
2017-12-01T13:20:56.434Z,5.57
2017-12-01T13:23:25.476Z,5.93
2017-12-01T13:28:29.754Z,5.90
2017-12-01T13:31:21.506Z,4.97
2017-12-01T13:33:50.554Z,4.20
2017-12-01T13:36:19.593Z,4.87
2017-12-01T13:38:48.627Z,4.47
2017-12-01T13:41:21.998Z,5.35
2017-12-01T13:43:51.034Z,4.73
2017-12-01T13:46:21.986Z,4.23
2017-12-01T13:51:58.139Z,5.40
2017-12-01T13:54:27.190Z,4.77
2017-12-01T13:56:57.150Z,4.47
2017-12-01T13:59:26.199Z,5.30
2017-12-01T14:04:33.088Z,7.07
2017-12-01T14:07:11.004Z,7.12
2017-12-01T14:09:40.055Z,6.80
2017-12-01T14:12:21.850Z,6.13
2017-12-01T14:14:59.137Z,6.00
2017-12-01T14:17:28.186Z,7.25
2017-12-01T14:19:59.270Z,7.40
2017-12-01T14:22:28.325Z,8.75
2017-12-01T14:24:57.367Z,8.30
2017-12-01T14:27:26.408Z,9.93
2017-12-01T14:29:55.458Z,9.03
2017-12-01T14:32:24.512Z,11.52
2017-12-01T14:34:59.500Z,9.73
2017-12-01T14:37:29.563Z,12.57
2017-12-01T14:40:04.271Z,10.20
2017-12-01T14:42:33.418Z,11.80
2017-12-01T14:45:02.545Z,11.50
2017-12-01T14:47:31.597Z,13.85
2017-12-01T14:50:22.199Z,13.98
2017-12-01T14:52:51.300Z,12.00
2017-12-01T14:55:20.776Z,14.13
2017-12-01T14:57:49.994Z,13.10
2017-12-01T15:00:22.387Z,14.68
2017-12-01T15:05:34.066Z,15.00
2017-12-01T15:13:21.696Z,15.30
2017-12-01T15:18:27.957Z,14.02
2017-12-01T15:23:37.159Z,14.38
2017-12-01T15:26:12.021Z,11.47
2017-12-01T15:28:41.078Z,15.10
2017-12-01T15:33:48.326Z,16.77
2017-12-01T15:36:22.055Z,11.23
2017-12-01T15:38:58.234Z,14.87
2017-12-01T15:41:27.299Z,23.65
2017-12-01T15:43:56.350Z,28.60
2017-12-01T15:46:26.301Z,37.20
2017-12-01T15:48:55.342Z,31.37
2017-12-01T15:51:24.429Z,30.92
2017-12-01T15:53:55.478Z,25.70
2017-12-01T15:56:24.538Z,18.53
2017-12-01T16:01:40.872Z,17.62
2017-12-01T16:04:13.465Z,14.80
2017-12-01T16:09:23.167Z,17.75
2017-12-01T16:14:30.364Z,15.20
2017-12-01T16:17:10.559Z,14.17
2017-12-01T16:19:39.858Z,18.08
2017-12-01T16:24:48.130Z,18.20
2017-12-01T16:27:19.197Z,15.60
2017-12-01T16:30:11.927Z,16.85
2017-12-01T16:32:42.485Z,15.37
2017-12-01T16:35:11.152Z,17.10
2017-12-01T16:37:40.190Z,17.03
2017-12-01T16:40:09.250Z,12.63
2017-12-01T16:42:38.355Z,16.15
2017-12-01T16:45:07.441Z,52.03
2017-12-01T16:47:36.490Z,32.70
2017-12-01T16:50:05.560Z,25.90
2017-12-01T16:52:34.632Z,20.53
2017-12-01T16:55:03.682Z,21.45
2017-12-01T16:57:32.783Z,18.73
2017-12-01T17:00:01.866Z,13.73
2017-12-01T17:02:30.990Z,17.85
2017-12-01T17:05:00.079Z,17.13
2017-12-01T17:07:29.139Z,18.87
2017-12-01T17:09:58.194Z,19.87
2017-12-01T17:12:27.250Z,20.30
2017-12-01T17:14:58.215Z,20.60
2017-12-01T17:17:27.275Z,20.92
2017-12-01T17:22:33.478Z,20.62
2017-12-01T17:25:17.290Z,23.23
2017-12-01T17:30:23.469Z,68.68
2017-12-01T17:33:00.990Z,17.23
2017-12-01T17:35:30.108Z,18.50
2017-12-01T17:37:59.146Z,18.80
2017-12-01T17:40:28.318Z,16.43
2017-12-01T17:45:39.260Z,22.42
2017-12-01T17:48:08.287Z,24.42
2017-12-01T17:50:37.363Z,23.00
2017-12-01T17:56:00.374Z,22.95
2017-12-01T17:58:29.435Z,15.70
2017-12-01T18:01:13.945Z,22.92
2017-12-01T18:06:26.098Z,25.20
2017-12-01T18:09:03.929Z,28.70
2017-12-01T18:11:32.997Z,19.53
2017-12-01T18:16:52.195Z,32.63
2017-12-01T18:19:22.179Z,23.40
2017-12-01T18:21:59.869Z,27.17
2017-12-01T18:24:28.951Z,26.52
2017-12-01T18:29:42.642Z,25.08
2017-12-01T18:32:12.654Z,26.77
2017-12-01T18:34:41.724Z,29.80
2017-12-01T18:37:10.894Z,32.75
2017-12-01T18:39:39.942Z,30.60
2017-12-01T18:42:09.099Z,32.67
2017-12-01T18:47:17.301Z,38.20
2017-12-01T18:49:46.387Z,35.13
2017-12-01T18:54:59.156Z,44.55
2017-12-01T18:57:28.199Z,37.20
2017-12-01T18:59:57.270Z,39.17
2017-12-01T19:02:26.318Z,46.20
2017-12-01T19:04:55.380Z,39.53
2017-12-01T19:07:29.543Z,24.20
2017-12-01T19:09:58.589Z,22.33
2017-12-01T19:12:27.748Z,16.30
2017-12-01T19:14:56.873Z,20.00
2017-12-01T19:20:11.073Z,20.98
2017-12-01T19:22:43.790Z,27.87
2017-12-01T19:25:14.837Z,19.52
2017-12-01T19:27:44.801Z,22.98
2017-12-01T19:30:13.861Z,20.23
2017-12-01T19:32:43.878Z,26.15
2017-12-01T19:35:17.864Z,27.85
2017-12-01T19:37:47.850Z,21.80
2017-12-01T19:40:16.917Z,24.75
2017-12-01T19:42:46.067Z,27.23
2017-12-01T19:45:15.122Z,21.47
2017-12-01T19:47:44.185Z,33.95
2017-12-01T19:50:13.230Z,33.65
2017-12-01T19:52:42.289Z,33.53
2017-12-01T19:55:12.286Z,36.10
2017-12-01T19:57:42.563Z,34.75
2017-12-01T20:00:15.915Z,30.50
2017-12-01T20:02:45.377Z,34.83
2017-12-01T20:05:14.442Z,35.17
2017-12-01T20:07:44.397Z,29.23
2017-12-01T20:12:50.367Z,34.08
2017-12-01T20:15:23.102Z,28.90
2017-12-01T20:17:52.367Z,33.78
2017-12-01T20:20:24.775Z,32.92
2017-12-01T20:22:54.148Z,27.47
2017-12-01T20:28:01.715Z,33.88
2017-12-01T20:30:41.182Z,33.30
2017-12-01T20:33:12.751Z,35.22
2017-12-01T20:35:43.694Z,34.00
2017-12-01T20:38:12.802Z,26.10
2017-12-01T20:40:41.929Z,31.30
2017-12-01T20:43:12.423Z,31.65
2017-12-01T20:45:43.564Z,25.17
2017-12-01T20:48:12.657Z,32.08
2017-12-01T20:50:42.597Z,33.10
2017-12-01T20:53:38.359Z,27.63
2017-12-01T20:56:19.864Z,29.70
2017-12-01T20:58:49.459Z,25.90
2017-12-01T21:01:19.793Z,31.47
2017-12-01T21:03:49.046Z,26.13
2017-12-01T21:06:20.158Z,31.30
2017-12-01T21:08:49.209Z,33.75
2017-12-01T21:14:02.363Z,34.90
2017-12-01T21:16:43.169Z,38.10
2017-12-01T21:19:12.231Z,34.83
2017-12-01T21:21:43.179Z,36.38
2017-12-01T21:24:21.669Z,38.33
2017-12-01T21:26:50.719Z,32.57
2017-12-01T21:29:33.169Z,38.58
2017-12-01T21:32:02.222Z,45.97
2017-12-01T21:34:41.364Z,36.20
2017-12-01T21:37:19.730Z,52.22
2017-12-01T21:39:48.810Z,59.20
2017-12-01T21:42:19.759Z,55.07
2017-12-01T21:44:50.019Z,72.90
2017-12-01T21:49:54.425Z,67.28
2017-12-01T21:55:19.747Z,61.67
2017-12-01T21:57:48.863Z,46.20
2017-12-01T22:00:21.225Z,49.80
2017-12-01T22:02:50.297Z,50.70
2017-12-01T22:05:20.173Z,39.90
2017-12-01T22:10:28.147Z,48.15
2017-12-01T22:12:57.190Z,44.90
2017-12-01T22:15:26.249Z,38.10
2017-12-01T22:20:33.100Z,43.90
2017-12-01T22:23:02.167Z,38.67
2017-12-01T22:25:31.222Z,42.85
2017-12-01T22:28:04.846Z,48.38
2017-12-01T22:30:33.896Z,43.17
2017-12-01T22:33:06.442Z,51.20
2017-12-01T22:35:35.495Z,49.45
2017-12-01T22:38:04.542Z,45.77
2017-12-01T22:40:33.601Z,50.08
2017-12-01T22:43:02.677Z,42.47
2017-12-01T22:45:31.802Z,49.53
2017-12-01T22:48:00.855Z,51.60
2017-12-01T22:50:30.794Z,51.22
2017-12-01T22:52:59.842Z,41.00
2017-12-01T22:55:28.922Z,51.78
2017-12-01T22:58:00.909Z,53.33
2017-12-01T23:00:29.951Z,55.35
2017-12-01T23:03:00.006Z,46.80
2017-12-01T23:05:29.077Z,55.20
2017-12-01T23:07:58.212Z,54.03
2017-12-01T23:10:27.235Z,53.70
2017-12-01T23:12:58.195Z,57.08
2017-12-01T23:15:28.146Z,51.40
2017-12-01T23:17:57.213Z,56.50
2017-12-01T23:20:26.270Z,55.20
2017-12-01T23:25:36.523Z,54.00
2017-12-01T23:28:05.571Z,47.47
2017-12-01T23:30:34.634Z,57.13
2017-12-01T23:33:18.937Z,44.10
2017-12-01T23:38:24.505Z,52.13
2017-12-01T23:43:28.887Z,59.30
2017-12-01T23:45:58.959Z,45.10
2017-12-01T23:48:28.043Z,54.35
2017-12-01T23:53:32.278Z,52.58
2017-12-01T23:56:01.439Z,41.10
2017-12-01T23:58:30.534Z,44.70
